Time;durP1;ratioP1;P1;durP2;ratioP2;P2;SDS_P1;SDS_P2;PMS_P1;PMS_P2;Temp;Humidity;BMP_temperature;BMP_pressure;BME280_temperature;BME280_humidity;BME280_pressure;Samples;Min_cycle;Max_cycle;Signal;HPM_P1;HPM_P2
2021/12/24 00:00:18;;;;;;;484.77;248.65;;;;;;;9.73;100.00;98702.06;4860976;29;20169;-63
2021/12/24 00:03:00;;;;;;;467.90;245.30;;;;;;;9.94;100.00;98705.78;4846242;29;20054;-64
2021/12/24 00:05:50;;;;;;;467.08;242.82;;;;;;;9.75;100.00;98702.84;4858565;29;20081;-64
2021/12/24 00:08:33;;;;;;;465.75;245.23;;;;;;;9.72;100.00;98707.25;4863839;29;20439;-64
2021/12/24 00:11:23;;;;;;;466.55;239.23;;;;;;;9.60;100.00;98710.97;4859714;29;20044;-63
2021/12/24 00:14:07;;;;;;;463.00;242.27;;;;;;;9.77;100.00;98710.53;4873592;29;20533;-63
2021/12/24 00:17:05;;;;;;;458.83;235.82;;;;;;;9.66;100.00;98708.22;4857054;29;20125;-63
2021/12/24 00:20:25;;;;;;;448.25;234.95;;;;;;;9.76;100.00;98698.56;4855662;29;20061;-63
2021/12/24 00:35:16;;;;;;;458.55;229.13;;;;;;;9.47;100.00;98717.31;4855699;29;20466;-64
2021/12/24 00:38:03;;;;;;;441.10;221.10;;;;;;;9.68;100.00;98713.34;4856194;29;20057;-62
2021/12/24 00:40:55;;;;;;;452.07;230.90;;;;;;;9.47;100.00;98722.47;4821282;29;20197;-63
2021/12/24 00:43:37;;;;;;;450.15;224.25;;;;;;;9.44;100.00;98723.38;4837193;29;20148;-64
2021/12/24 00:46:26;;;;;;;447.15;228.57;;;;;;;9.31;100.00;98729.72;4825693;29;20049;-63
2021/12/24 00:49:08;;;;;;;449.83;228.70;;;;;;;9.17;100.00;98735.19;4850004;29;20057;-64
2021/12/24 00:52:17;;;;;;;441.27;224.90;;;;;;;9.10;100.00;98743.03;4854240;29;20067;-63
2021/12/24 00:55:09;;;;;;;441.70;224.63;;;;;;;9.07;100.00;98741.41;4854495;29;20054;-64
2021/12/24 00:58:00;;;;;;;429.50;212.75;;;;;;;9.04;100.00;98745.75;4858477;29;20553;-64
2021/12/24 01:00:42;;;;;;;435.77;212.52;;;;;;;9.11;100.00;98739.59;4853311;29;20053;-63
2021/12/24 01:03:33;;;;;;;420.88;209.63;;;;;;;9.40;100.00;98746.63;4840916;29;20092;-63
2021/12/24 01:06:15;;;;;;;417.73;207.88;;;;;;;9.32;100.00;98757.09;4857944;29;20086;-63
2021/12/24 01:09:03;;;;;;;408.02;204.50;;;;;;;9.33;100.00;98751.09;4864738;29;20075;-62
2021/12/24 01:11:52;;;;;;;404.05;201.23;;;;;;;9.21;100.00;98752.22;4837671;29;20060;-62
2021/12/24 01:14:35;;;;;;;420.88;205.48;;;;;;;9.11;100.00;98757.59;4838126;29;20140;-62
2021/12/24 01:18:01;;;;;;;417.60;203.98;;;;;;;9.41;100.00;98759.47;4855692;29;20126;-61
2021/12/24 01:20:51;;;;;;;415.80;205.45;;;;;;;9.34;100.00;98762.22;4835657;29;20058;-62
2021/12/24 01:24:03;;;;;;;416.88;203.48;;;;;;;9.24;100.00;98756.44;4819163;29;20142;-62
2021/12/24 01:27:55;;;;;;;423.90;203.82;;;;;;;9.36;100.00;98768.16;4831934;29;20153;-62
2021/12/24 01:30:07;;;;;;;419.08;202.80;;;;;;;9.30;100.00;98771.72;4828616;29;20070;-62
2021/12/24 01:39:06;;;;;;;414.85;197.70;;;;;;;9.30;100.00;98764.00;4853199;29;20053;-63
2021/12/24 01:45:00;;;;;;;417.70;205.57;;;;;;;9.12;100.00;98777.28;4855834;29;20540;-62
2021/12/24 01:47:50;;;;;;;398.77;195.63;;;;;;;9.17;100.00;98783.16;4830846;29;20092;-62
2021/12/24 01:50:35;;;;;;;417.98;201.05;;;;;;;9.41;100.00;98789.47;4845587;29;20060;-62
2021/12/24 01:53:34;;;;;;;408.67;200.82;;;;;;;9.33;100.00;98792.22;4837188;29;20049;-62
2021/12/24 01:56:17;;;;;;;402.08;195.77;;;;;;;9.25;100.00;98793.28;4842679;29;20119;-62
2021/12/24 01:59:07;;;;;;;403.08;196.32;;;;;;;9.17;100.00;98796.03;4841342;29;20079;-62
2021/12/24 02:01:49;;;;;;;412.10;197.63;;;;;;;9.13;100.00;98800.38;4837629;29;20103;-62
2021/12/24 02:04:40;;;;;;;398.40;198.65;;;;;;;9.11;100.00;98804.69;4854664;29;20064;-62
2021/12/24 02:07:22;;;;;;;399.77;196.50;;;;;;;9.30;100.00;98807.69;4841714;29;20049;-62
2021/12/24 02:10:14;;;;;;;403.65;193.25;;;;;;;9.36;100.00;98801.56;4840088;29;20160;-62
2021/12/24 02:12:57;;;;;;;405.13;200.95;;;;;;;9.39;100.00;98811.78;4853166;29;20498;-62
2021/12/24 02:28:16;;;;;;;401.77;200.60;;;;;;;9.17;100.00;98824.28;4859466;29;20593;-62
2021/12/24 02:28:25;;;;;;;407.77;194.45;;;;;;;9.30;100.00;98822.28;4864373;29;20053;-62
2021/12/24 02:31:23;;;;;;;399.65;198.77;;;;;;;9.31;100.00;98826.53;4847299;29;20756;-62
2021/12/24 02:34:13;;;;;;;420.25;198.23;;;;;;;9.33;100.00;98833.34;4846966;29;20061;-62
2021/12/24 02:37:01;;;;;;;405.33;194.93;;;;;;;9.37;100.00;98834.09;4842774;29;20109;-62
2021/12/24 02:39:45;;;;;;;415.85;202.25;;;;;;;9.36;100.00;98843.53;4846442;29;20105;-62
2021/12/24 02:42:35;;;;;;;404.42;200.45;;;;;;;9.54;100.00;98845.69;4847742;29;20061;-62
2021/12/24 02:45:19;;;;;;;421.02;204.63;;;;;;;9.67;100.00;98843.69;4863995;29;20136;-62
2021/12/24 02:54:18;;;;;;;406.50;201.82;;;;;;;9.72;100.00;98856.44;4842865;29;20546;-62
2021/12/24 02:57:10;;;;;;;419.35;206.27;;;;;;;9.76;100.00;98852.91;4855528;29;20111;-62
2021/12/24 03:00:07;;;;;;;420.73;206.13;;;;;;;9.92;100.00;98861.94;4843900;29;20045;-62
2021/12/24 03:03:04;;;;;;;431.35;202.77;;;;;;;10.03;100.00;98859.97;4861942;29;20045;-62
2021/12/24 03:05:40;;;;;;;417.77;201.15;;;;;;;10.21;100.00;98867.25;4845777;29;20053;-62
2021/12/24 03:08:36;;;;;;;;;;;;;;;10.23;100.00;98873.19;4860625;29;20136;-62
2021/12/24 03:11:12;;;;;;;415.45;198.18;;;;;;;10.35;100.00;98880.63;4845944;29;19928;-62
2021/12/24 03:14:11;;;;;;;396.35;195.07;;;;;;;10.41;100.00;98891.63;4844260;29;20058;-62
2021/12/24 03:17:06;;;;;;;405.38;203.18;;;;;;;10.45;100.00;98885.53;4849334;29;20053;-63
2021/12/24 03:20:03;;;;;;;419.35;203.55;;;;;;;10.61;100.00;98897.97;4837770;29;20053;-63
2021/12/24 03:25:38;;;;;;;420.38;201.23;;;;;;;11.37;100.00;98905.25;4821711;29;20041;-62
2021/12/24 03:28:26;;;;;;;398.58;198.98;;;;;;;11.35;100.00;98907.03;4857024;29;20053;-62
2021/12/24 03:31:15;;;;;;;418.25;197.35;;;;;;;11.34;100.00;98910.50;4842329;29;20051;-62
2021/12/24 03:34:06;;;;;;;380.02;189.52;;;;;;;11.56;100.00;98911.56;4854924;29;20117;-62
2021/12/24 03:37:02;;;;;;;396.42;195.57;;;;;;;12.03;100.00;98910.13;4858936;29;20057;-63
2021/12/24 03:39:38;;;;;;;390.83;191.70;;;;;;;12.24;100.00;98911.16;4847513;29;20065;-63
2021/12/24 03:42:27;;;;;;;405.23;196.45;;;;;;;12.28;100.00;98917.91;4857077;29;20135;-62
2021/12/24 03:45:30;;;;;;;372.13;186.07;;;;;;;12.43;100.00;98921.72;4869135;29;20068;-64
2021/12/24 03:48:28;;;;;;;367.48;185.18;;;;;;;12.87;100.00;98927.94;4838323;29;20455;-63
2021/12/24 03:57:05;;;;;;;344.35;174.00;;;;;;;13.65;100.00;98941.44;4848987;29;20064;-63
2021/12/24 04:00:30;;;;;;;339.90;171.15;;;;;;;13.60;100.00;98943.38;4830103;29;20108;-63
2021/12/24 04:03:35;;;;;;;340.20;167.73;;;;;;;13.58;100.00;98946.03;4856058;29;20113;-62
2021/12/24 04:06:43;;;;;;;342.00;170.95;;;;;;;14.31;100.00;98944.88;4865658;29;20095;-61
2021/12/24 04:13:12;;;;;;;335.52;177.30;;;;;;;14.51;100.00;98960.50;4858867;29;20040;-63
2021/12/24 04:16:02;;;;;;;323.85;173.07;;;;;;;14.60;100.00;98962.72;4866372;29;20049;-61
2021/12/24 04:25:05;;;;;;;317.60;165.18;;;;;;;15.00;100.00;98961.00;4830489;29;20080;-63
2021/12/24 04:27:57;;;;;;;375.50;170.05;;;;;;;14.90;100.00;98961.41;4842754;29;20044;-63
2021/12/24 04:30:45;;;;;;;311.65;164.05;;;;;;;15.34;100.00;98963.78;4843993;29;20347;-63
2021/12/24 04:33:45;;;;;;;314.75;162.63;;;;;;;15.35;100.00;98967.22;4846433;29;20836;-63
2021/12/24 04:39:41;;;;;;;305.90;156.80;;;;;;;15.76;100.00;98962.78;4849491;29;20049;-63
2021/12/24 04:51:51;;;;;;;298.73;154.23;;;;;;;15.94;100.00;98980.13;4828673;29;20719;-63
2021/12/24 05:03:48;;;;;;;263.23;137.70;;;;;;;15.90;100.00;98973.38;4840359;29;20117;-64
2021/12/24 05:06:39;;;;;;;279.45;142.90;;;;;;;16.17;100.00;98968.63;4843001;29;20125;-63
2021/12/24 05:09:24;;;;;;;267.70;139.63;;;;;;;16.29;100.00;98968.88;4840505;29;20057;-62
2021/12/24 05:12:12;;;;;;;254.13;136.13;;;;;;;15.87;100.00;98961.38;4849724;29;20049;-62
2021/12/24 05:14:58;;;;;;;268.85;144.10;;;;;;;16.04;100.00;98951.00;4845150;29;20075;-63
2021/12/24 05:21:43;;;;;;;267.10;141.70;;;;;;;16.49;100.00;98960.09;4779399;29;20151;-63
2021/12/24 05:24:27;;;;;;;277.63;144.63;;;;;;;16.52;100.00;98953.91;4859096;29;20120;-64
2021/12/24 05:27:16;;;;;;;266.75;140.27;;;;;;;16.96;99.72;98944.72;4860269;29;20077;-64
2021/12/24 05:30:06;;;;;;;259.30;136.60;;;;;;;16.92;98.29;98939.78;4852973;29;20136;-63
2021/12/24 05:32:55;;;;;;;254.05;134.57;;;;;;;17.08;95.77;98943.25;4857471;29;20055;-64
2021/12/24 05:35:38;;;;;;;265.90;136.27;;;;;;;17.38;93.72;98935.59;4840245;29;20110;-67
2021/12/24 05:38:30;;;;;;;263.27;136.98;;;;;;;17.19;94.74;98931.34;4839219;29;20136;-66
2021/12/24 05:41:13;;;;;;;263.95;135.82;;;;;;;17.48;94.46;98926.34;4851460;29;20595;-67
2021/12/24 05:44:04;;;;;;;260.60;136.13;;;;;;;17.38;93.77;98927.78;4832349;29;20053;-69
2021/12/24 05:47:01;;;;;;;254.43;135.15;;;;;;;17.76;92.48;98929.16;4849411;29;20627;-69
2021/12/24 05:49:54;;;;;;;256.67;136.48;;;;;;;17.65;91.97;98928.06;4838025;29;20053;-68
2021/12/24 05:52:51;;;;;;;248.38;131.63;;;;;;;17.48;91.90;98916.75;4850516;29;20057;-68
2021/12/24 05:55:57;;;;;;;253.45;138.27;;;;;;;17.99;90.99;98907.00;4843108;29;20494;-69
2021/12/24 05:58:50;;;;;;;240.93;130.60;;;;;;;17.73;92.17;98905.84;4834440;29;20049;-69
2021/12/24 06:01:33;;;;;;;275.52;140.32;;;;;;;17.72;90.63;98914.59;4824003;29;20060;-69
2021/12/24 06:04:22;;;;;;;247.80;132.10;;;;;;;18.08;88.18;98916.09;4851019;29;20163;-69
2021/12/24 06:07:11;;;;;;;240.85;127.13;;;;;;;17.62;89.42;98910.00;4817274;29;20485;-69
2021/12/24 06:10:06;;;;;;;244.20;132.02;;;;;;;17.90;90.55;98903.16;4853665;29;20057;-69
2021/12/24 06:12:42;;;;;;;242.40;122.55;;;;;;;18.22;87.16;98900.47;4853533;29;20057;-68
2021/12/24 06:15:33;;;;;;;245.77;124.15;;;;;;;18.18;90.54;98892.00;4853634;29;20145;-69
2021/12/24 06:18:28;;;;;;;235.35;125.45;;;;;;;18.34;88.66;98886.75;4838054;29;20072;-69
2021/12/24 06:21:17;;;;;;;248.98;125.22;;;;;;;18.61;85.76;98890.38;4843075;29;20065;-69
2021/12/24 06:24:05;;;;;;;224.82;119.68;;;;;;;18.54;85.13;98882.97;4836203;29;20053;-68
2021/12/24 06:27:03;;;;;;;212.38;118.28;;;;;;;18.66;83.71;98877.06;4831626;29;20057;-68
2021/12/24 06:29:39;;;;;;;212.35;116.32;;;;;;;18.90;82.14;98875.59;4842795;29;20141;-69
2021/12/24 06:32:28;;;;;;;228.55;117.80;;;;;;;18.95;81.39;98867.44;4826421;29;20053;-68
2021/12/24 06:35:12;;;;;;;234.57;119.53;;;;;;;18.87;83.45;98864.47;4843892;29;20041;-68
2021/12/24 06:38:01;;;;;;;230.43;123.05;;;;;;;19.03;81.55;98854.78;4851636;29;20054;-68
2021/12/24 06:40:50;;;;;;;209.70;117.45;;;;;;;18.98;80.25;98849.00;4815456;29;20441;-69
2021/12/24 06:43:38;;;;;;;192.65;107.93;;;;;;;19.02;79.90;98840.03;4843665;29;20073;-66
2021/12/24 06:46:21;;;;;;;193.85;107.28;;;;;;;18.93;80.31;98843.19;4841336;29;20133;-66
2021/12/24 06:49:10;;;;;;;197.05;109.40;;;;;;;18.86;78.08;98840.13;4824087;29;20047;-67
2021/12/24 06:51:53;;;;;;;207.57;108.40;;;;;;;18.87;78.73;98828.75;4849668;29;20561;-66
2021/12/24 06:54:42;;;;;;;213.48;115.50;;;;;;;18.84;80.44;98830.72;4840174;29;20490;-66
2021/12/24 06:57:28;;;;;;;217.52;117.22;;;;;;;19.26;83.40;98825.44;4814942;29;22218;-67
2021/12/24 07:00:21;;;;;;;221.27;116.07;;;;;;;18.90;80.83;98827.75;4819182;29;20145;-67
2021/12/24 07:03:03;;;;;;;226.93;116.15;;;;;;;18.90;80.38;98828.59;4823391;29;20132;-66
2021/12/24 07:05:51;;;;;;;216.02;117.60;;;;;;;18.98;79.51;98826.34;4842394;29;20385;-66
2021/12/24 07:08:33;;;;;;;219.18;120.43;;;;;;;18.82;79.73;98811.72;4837932;29;21781;-68
2021/12/24 07:11:29;;;;;;;229.43;120.45;;;;;;;18.98;78.35;98815.06;4855245;29;20054;-68
2021/12/24 07:14:05;;;;;;;240.68;122.47;;;;;;;19.10;76.78;98817.72;4847507;29;20590;-69
2021/12/24 07:17:07;;;;;;;220.93;120.68;;;;;;;19.15;78.20;98800.94;4848265;29;20073;-69
2021/12/24 07:20:02;;;;;;;223.90;123.18;;;;;;;19.05;80.29;98800.69;4848725;29;20496;-69
2021/12/24 07:22:59;;;;;;;237.65;127.95;;;;;;;19.04;80.00;98804.22;4848146;29;20069;-69
2021/12/24 07:25:35;;;;;;;234.65;122.72;;;;;;;18.96;78.71;98806.47;4840927;29;20061;-70
2021/12/24 07:28:31;;;;;;;238.38;125.25;;;;;;;18.98;78.63;98799.41;4836704;29;20049;-69
2021/12/24 07:31:07;;;;;;;241.13;124.85;;;;;;;19.09;79.02;98791.69;4847556;29;20656;-70
2021/12/24 07:33:56;;;;;;;229.65;123.07;;;;;;;18.92;79.22;98789.31;4814027;29;20065;-69
2021/12/24 07:36:38;;;;;;;229.82;121.47;;;;;;;19.09;77.97;98789.09;4847007;29;20133;-69
2021/12/24 07:39:27;;;;;;;213.88;120.53;;;;;;;19.11;76.91;98777.63;4843109;29;20141;-69
2021/12/24 07:42:10;;;;;;;232.90;124.53;;;;;;;19.16;76.84;98772.09;4845655;29;20056;-69
2021/12/24 07:45:08;;;;;;;226.20;123.38;;;;;;;19.03;76.54;98771.22;4838510;29;20507;-70
2021/12/24 07:47:55;;;;;;;234.88;126.10;;;;;;;19.25;77.86;98771.53;4842703;29;20049;-70
2021/12/24 07:53:30;;;;;;;223.43;123.20;;;;;;;19.27;76.09;98758.38;4825291;29;20634;-69
2021/12/24 07:56:19;;;;;;;223.70;119.15;;;;;;;19.09;76.62;98747.31;4835744;29;20045;-69
2021/12/24 07:59:09;;;;;;;222.55;121.07;;;;;;;19.20;75.76;98750.09;4826135;29;20842;-69
2021/12/24 08:01:58;;;;;;;228.15;120.13;;;;;;;19.28;75.91;98746.97;4843440;29;20057;-69
2021/12/24 08:04:42;;;;;;;222.70;119.00;;;;;;;18.97;75.81;98745.50;4836732;29;20101;-69
2021/12/24 08:07:31;;;;;;;216.90;116.95;;;;;;;19.03;76.13;98740.72;4841977;29;20110;-69
2021/12/24 08:10:14;;;;;;;209.88;117.35;;;;;;;19.30;77.27;98732.06;4846762;29;20361;-70
2021/12/24 08:13:03;;;;;;;228.18;116.45;;;;;;;19.30;76.64;98734.66;4847805;29;20470;-68
2021/12/24 08:15:53;;;;;;;218.60;118.32;;;;;;;19.16;77.34;98734.69;4846353;29;20045;-69
2021/12/24 08:18:49;;;;;;;219.02;114.55;;;;;;;19.32;77.55;98728.38;4850850;29;20140;-69
2021/12/24 08:21:45;;;;;;;226.98;115.00;;;;;;;19.36;75.37;98721.19;4861835;29;20060;-69
2021/12/24 08:24:21;;;;;;;203.18;113.80;;;;;;;19.49;77.26;98707.25;4839417;29;20056;-69
2021/12/24 08:27:10;;;;;;;204.77;110.55;;;;;;;19.54;73.42;98711.34;4855219;29;20175;-69
2021/12/24 08:29:54;;;;;;;209.20;109.38;;;;;;;19.52;73.37;98713.22;4856030;29;20653;-69
2021/12/24 08:32:44;;;;;;;210.60;112.03;;;;;;;19.39;74.34;98710.56;4838618;29;20072;-69
2021/12/24 08:35:28;;;;;;;204.98;111.53;;;;;;;19.37;74.72;98707.22;4854169;29;20080;-69
2021/12/24 08:38:19;;;;;;;229.40;111.93;;;;;;;19.52;75.55;98702.78;4854836;29;20045;-69
2021/12/24 08:40:56;;;;;;;204.00;110.63;;;;;;;19.22;74.71;98706.44;4858363;29;20057;-68
2021/12/24 08:43:45;;;;;;;208.65;112.00;;;;;;;19.21;72.85;98703.91;4859837;29;20373;-69
2021/12/24 08:46:34;;;;;;;199.95;109.55;;;;;;;19.29;73.97;98699.88;4835099;29;20050;-69
2021/12/24 08:49:16;;;;;;;;;;;;;;;19.26;73.29;98696.59;4868732;29;20045;-68
2021/12/24 08:52:05;;;;;;;206.85;108.18;;;;;;;19.30;73.64;98693.72;4867369;29;20479;-68
2021/12/24 08:54:49;;;;;;;212.15;106.07;;;;;;;19.38;72.98;98694.03;4840744;29;20156;-69
2021/12/24 08:57:41;;;;;;;205.82;106.63;;;;;;;19.31;71.93;98697.16;4852780;29;20084;-68
2021/12/24 09:00:24;;;;;;;193.15;103.25;;;;;;;19.21;70.98;98699.53;4853748;29;20064;-68
2021/12/24 09:03:14;;;;;;;195.05;106.63;;;;;;;19.31;73.68;98697.16;4853292;29;20117;-67
2021/12/24 09:06:05;;;;;;;196.65;102.07;;;;;;;19.29;71.21;98706.88;4838646;29;20077;-68
2021/12/24 09:08:47;;;;;;;193.75;103.47;;;;;;;19.26;72.08;98699.22;4844189;29;20084;-68
2021/12/24 09:11:37;;;;;;;189.77;105.40;;;;;;;19.32;73.51;98698.81;4853770;29;20064;-68
2021/12/24 09:14:19;;;;;;;202.05;108.20;;;;;;;19.36;74.34;98695.91;4861336;29;20108;-68
2021/12/24 09:17:09;;;;;;;204.88;108.47;;;;;;;19.23;74.30;98695.06;4864491;29;20108;-68
2021/12/24 09:19:58;;;;;;;197.55;107.65;;;;;;;19.19;75.80;98704.00;4858118;29;20141;-68
2021/12/24 09:22:48;;;;;;;197.50;107.55;;;;;;;19.12;73.53;98702.72;4865161;29;20509;-68
2021/12/24 09:25:31;;;;;;;195.05;104.57;;;;;;;19.28;72.71;98698.19;4842921;29;20053;-67
2021/12/24 09:28:20;;;;;;;193.75;102.88;;;;;;;19.32;72.64;98699.66;4863788;29;20619;-66
2021/12/24 09:31:08;;;;;;;185.98;102.72;;;;;;;19.37;73.24;98705.44;4868545;29;20563;-67
2021/12/24 09:33:51;;;;;;;199.65;103.80;;;;;;;19.34;75.75;98710.00;4869666;29;20071;-66
2021/12/24 09:36:40;;;;;;;203.15;106.30;;;;;;;19.27;73.62;98700.91;4863113;29;20067;-67
2021/12/24 09:39:29;;;;;;;191.77;103.47;;;;;;;19.16;70.73;98704.19;4864024;29;20056;-66
2021/12/24 09:42:12;;;;;;;188.73;101.07;;;;;;;19.27;70.70;98706.97;4857215;29;20056;-66
2021/12/24 09:45:13;;;;;;;179.13;98.47;;;;;;;19.29;72.95;98707.72;4854270;29;20050;-65
2021/12/24 09:47:51;;;;;;;197.27;105.72;;;;;;;19.21;73.06;98696.91;4823228;29;20057;-66
2021/12/24 09:50:46;;;;;;;210.15;106.30;;;;;;;19.16;73.71;98703.34;4853831;29;20062;-65
2021/12/24 09:53:23;;;;;;;200.88;101.40;;;;;;;19.17;71.59;98700.66;4836930;29;20050;-66
2021/12/24 09:56:11;;;;;;;190.48;100.75;;;;;;;19.20;72.69;98704.84;4837638;29;20061;-66
2021/12/24 09:58:55;;;;;;;189.35;102.65;;;;;;;19.19;72.28;98698.78;4854637;29;20077;-65
2021/12/24 10:01:58;;;;;;;200.77;102.13;;;;;;;19.20;72.26;98697.84;4860654;29;20153;-66
2021/12/24 10:04:43;;;;;;;188.40;100.78;;;;;;;19.11;73.24;98706.28;4861707;29;20091;-66
2021/12/24 10:07:37;;;;;;;186.52;103.03;;;;;;;19.12;74.77;98705.34;4854273;29;20506;-66
2021/12/24 10:10:24;;;;;;;193.10;103.10;;;;;;;19.12;76.82;98700.13;4862253;29;20049;-66
2021/12/24 10:13:34;;;;;;;199.67;108.30;;;;;;;19.14;75.33;98700.88;4862643;29;20701;-65
2021/12/24 10:16:20;;;;;;;205.23;106.78;;;;;;;19.02;76.81;98704.25;4861853;29;20051;-65
2021/12/24 10:19:16;;;;;;;197.73;108.77;;;;;;;18.93;79.54;98702.22;4863036;29;20059;-65
2021/12/24 10:22:05;;;;;;;197.30;103.65;;;;;;;18.94;76.57;98698.69;4849161;29;20072;-65
2021/12/24 10:25:13;;;;;;;200.85;104.55;;;;;;;18.96;76.18;98699.44;4860185;29;20064;-65
2021/12/24 10:28:12;;;;;;;193.15;103.43;;;;;;;18.91;78.88;98704.13;4863539;29;20049;-65
2021/12/24 10:31:08;;;;;;;199.85;106.13;;;;;;;18.79;79.24;98713.53;4861218;29;20343;-66
2021/12/24 10:34:28;;;;;;;197.95;107.78;;;;;;;18.75;81.65;98706.84;4845474;29;20692;-66
2021/12/24 10:37:22;;;;;;;204.20;104.38;;;;;;;18.65;82.54;98708.34;4860970;29;20091;-66
2021/12/24 10:40:13;;;;;;;201.73;109.07;;;;;;;18.50;88.46;98710.13;4853752;29;20105;-66
2021/12/24 10:42:57;;;;;;;199.75;108.22;;;;;;;18.38;88.12;98710.00;4867157;29;20048;-66
2021/12/24 10:45:47;;;;;;;211.55;108.78;;;;;;;18.26;91.73;98715.06;4867274;29;20064;-66
2021/12/24 10:48:29;;;;;;;219.70;113.97;;;;;;;18.21;92.14;98708.44;4859600;29;20369;-63
2021/12/24 10:51:41;;;;;;;207.20;109.28;;;;;;;18.11;93.14;98712.53;4847082;29;20057;-67
2021/12/24 10:54:22;;;;;;;213.38;110.60;;;;;;;18.03;95.42;98709.56;4854532;29;20160;-67
2021/12/24 10:57:16;;;;;;;213.98;111.10;;;;;;;17.89;97.84;98711.19;4862172;29;20579;-66
2021/12/24 11:00:03;;;;;;;213.00;112.03;;;;;;;17.81;98.59;98709.97;4849027;29;20053;-66
2021/12/24 11:03:17;;;;;;;237.25;112.13;;;;;;;17.76;100.00;98706.81;4850635;29;20088;-69
2021/12/24 11:06:07;;;;;;;219.77;114.18;;;;;;;17.64;100.00;98708.34;4867470;29;20357;-68
2021/12/24 11:08:57;;;;;;;218.05;111.57;;;;;;;17.57;100.00;98699.19;4862663;29;20060;-65
2021/12/24 11:11:45;;;;;;;225.75;114.80;;;;;;;17.47;100.00;98705.88;4864303;29;20492;-67
2021/12/24 11:14:34;;;;;;;235.07;115.32;;;;;;;17.38;100.00;98703.78;4856450;29;20130;-66
2021/12/24 11:17:16;;;;;;;233.52;118.97;;;;;;;17.33;100.00;98704.03;4854143;29;20049;-65
2021/12/24 11:20:17;;;;;;;226.70;118.55;;;;;;;17.21;100.00;98697.78;4855308;29;20060;-66
2021/12/24 11:23:12;;;;;;;230.80;118.18;;;;;;;17.06;100.00;98701.25;4860231;29;20076;-66
2021/12/24 11:25:58;;;;;;;238.02;117.40;;;;;;;16.98;100.00;98703.44;4842986;29;20045;-66
2021/12/24 11:28:47;;;;;;;246.80;120.35;;;;;;;16.89;100.00;98709.16;4861969;29;20053;-66
2021/12/24 11:31:38;;;;;;;232.02;118.45;;;;;;;16.76;100.00;98715.97;4863884;29;20060;-66
2021/12/24 11:34:27;;;;;;;251.85;121.45;;;;;;;16.66;100.00;98707.81;4864527;29;20057;-67
2021/12/24 11:37:10;;;;;;;227.98;121.15;;;;;;;16.52;100.00;98706.84;4863489;29;20078;-66
2021/12/24 11:40:01;;;;;;;248.98;122.15;;;;;;;16.45;100.00;98704.56;4837608;29;20054;-66
2021/12/24 11:42:45;;;;;;;245.57;122.57;;;;;;;16.37;100.00;98717.13;4836461;29;20041;-67
2021/12/24 11:45:34;;;;;;;244.07;121.35;;;;;;;16.26;100.00;98716.03;4851885;29;20063;-65
2021/12/24 11:48:27;;;;;;;252.93;124.93;;;;;;;16.19;100.00;98712.06;4844354;29;20096;-70
2021/12/24 11:51:22;;;;;;;249.90;125.40;;;;;;;16.14;100.00;98712.28;4845440;29;20044;-68
2021/12/24 11:54:13;;;;;;;253.18;126.22;;;;;;;16.09;100.00;98722.09;4860084;29;20053;-66
2021/12/24 11:57:01;;;;;;;250.73;126.70;;;;;;;16.00;100.00;98713.00;4849041;29;20080;-68
2021/12/24 11:59:47;;;;;;;255.10;126.03;;;;;;;15.95;100.00;98720.22;4840640;29;20185;-66
2021/12/24 12:02:45;;;;;;;263.58;130.00;;;;;;;15.91;100.00;98723.03;4854688;29;20068;-66
2021/12/24 12:05:37;;;;;;;255.57;130.13;;;;;;;15.82;100.00;98726.09;4853668;29;20114;-67
2021/12/24 12:08:25;;;;;;;263.98;130.70;;;;;;;15.66;100.00;98726.84;4859565;29;20361;-67
2021/12/24 12:11:30;;;;;;;268.15;133.20;;;;;;;15.63;100.00;98731.38;4861512;29;20053;-65
2021/12/24 12:14:25;;;;;;;270.27;130.40;;;;;;;15.56;100.00;98723.06;4867118;29;20060;-65
2021/12/24 12:17:08;;;;;;;278.20;133.38;;;;;;;15.52;100.00;98723.25;4848430;29;20042;-66
2021/12/24 12:20:03;;;;;;;277.23;131.55;;;;;;;15.49;100.00;98719.03;4846257;29;20045;-66
2021/12/24 12:25:42;;;;;;;;;;;;;;;15.35;100.00;98728.41;4856187;29;20077;-66
2021/12/24 12:28:17;;;;;;;263.20;130.45;;;;;;;15.29;100.00;98729.56;4871037;29;20585;-68
2021/12/24 12:31:19;;;;;;;273.20;138.18;;;;;;;15.26;100.00;98727.09;4864131;29;20634;-66
2021/12/24 12:34:08;;;;;;;283.30;137.63;;;;;;;15.26;100.00;98737.47;4861754;29;20053;-66
2021/12/24 12:37:18;;;;;;;288.05;140.32;;;;;;;15.15;100.00;98735.41;4865769;29;20602;-66
2021/12/24 12:40:03;;;;;;;277.08;135.52;;;;;;;15.09;100.00;98747.81;4862328;29;20053;-66
2021/12/24 12:43:02;;;;;;;287.33;140.52;;;;;;;15.05;100.00;98746.28;4863604;29;20040;-66
2021/12/24 12:45:38;;;;;;;293.42;141.90;;;;;;;14.99;100.00;98744.84;4863493;29;20053;-66
2021/12/24 12:48:42;;;;;;;317.05;149.65;;;;;;;14.93;100.00;98748.53;4862287;29;20505;-67
2021/12/24 12:51:25;;;;;;;290.52;148.10;;;;;;;14.90;100.00;98747.84;4867294;29;20067;-66
2021/12/24 12:54:32;;;;;;;298.40;155.40;;;;;;;14.90;100.00;98760.81;4863392;29;20060;-67
2021/12/24 12:57:28;;;;;;;302.88;153.50;;;;;;;14.88;100.00;98754.84;4863806;29;20057;-67
2021/12/24 13:00:18;;;;;;;303.00;152.90;;;;;;;14.80;100.00;98750.03;4856318;29;20064;-68
2021/12/24 13:03:07;;;;;;;317.83;155.55;;;;;;;14.79;100.00;98755.28;4861072;29;20041;-68
2021/12/24 13:05:48;;;;;;;319.48;154.77;;;;;;;14.82;100.00;98762.94;4854926;29;20057;-65
2021/12/24 13:08:40;;;;;;;310.35;155.73;;;;;;;14.76;100.00;98763.22;4856113;29;20049;-67
2021/12/24 13:11:22;;;;;;;317.60;156.43;;;;;;;14.76;100.00;98777.03;4859472;29;20045;-70
2021/12/24 13:14:10;;;;;;;310.00;154.45;;;;;;;14.71;100.00;98778.97;4848638;29;21373;-68
2021/12/24 13:22:27;;;;;;;313.00;158.82;;;;;;;14.67;100.00;98793.00;4863368;29;20064;-67
2021/12/24 13:23:18;;;;;;;317.00;158.13;;;;;;;14.60;100.00;98795.94;4852246;29;20049;-68
2021/12/24 13:26:09;;;;;;;341.85;160.57;;;;;;;14.57;100.00;98791.72;4831432;29;20049;-67
2021/12/24 13:29:01;;;;;;;325.77;156.45;;;;;;;14.53;100.00;98796.19;4867699;29;20052;-66
2021/12/24 13:31:59;;;;;;;330.15;158.10;;;;;;;14.50;100.00;98800.69;4829946;29;20139;-67
2021/12/24 13:34:36;;;;;;;333.15;157.52;;;;;;;14.52;100.00;98806.63;4858478;29;20121;-63
2021/12/24 13:37:38;;;;;;;340.00;158.85;;;;;;;14.49;100.00;98806.75;4856174;29;20057;-67
2021/12/24 13:40:16;;;;;;;342.17;164.80;;;;;;;14.45;100.00;98812.97;4852941;29;20053;-65
2021/12/24 13:43:07;;;;;;;347.08;164.32;;;;;;;14.41;100.00;98817.47;4850419;29;20042;-63
2021/12/24 13:45:57;;;;;;;343.35;165.20;;;;;;;14.34;100.00;98810.00;4845472;29;20049;-65
2021/12/24 13:48:51;;;;;;;;;;;;;;;14.32;100.00;98811.81;4846325;29;20063;-66
2021/12/24 13:54:45;;;;;;;343.50;163.70;;;;;;;14.28;100.00;98818.03;4858527;29;20416;-65
2021/12/24 13:57:27;;;;;;;341.40;167.60;;;;;;;14.22;100.00;98815.69;4854034;29;20056;-66
2021/12/24 14:00:15;;;;;;;357.33;173.70;;;;;;;14.26;100.00;98822.44;4856076;29;20140;-66
2021/12/24 14:03:02;;;;;;;349.42;178.18;;;;;;;14.28;100.00;98820.63;4862154;29;20056;-65
2021/12/24 14:05:54;;;;;;;369.58;178.82;;;;;;;14.25;100.00;98823.34;4858392;29;20076;-66
2021/12/24 14:08:42;;;;;;;383.73;186.68;;;;;;;14.24;100.00;98832.00;4860389;29;20049;-66
2021/12/24 14:11:39;;;;;;;354.20;179.73;;;;;;;14.15;100.00;98833.25;4859261;29;20365;-65
2021/12/24 14:14:41;;;;;;;340.95;181.40;;;;;;;14.17;100.00;98829.69;4857602;29;20097;-65